sensor_id;sensor_type;location;lat;lon;timestamp;temperature;humidity
79500;SHT31;76397;53.172;18.140;2024-02-26T00:01:48;1.93;80.53
79500;SHT31;76397;53.172;18.140;2024-02-26T00:04:15;1.96;80.55
79500;SHT31;76397;53.172;18.140;2024-02-26T00:06:42;1.96;80.61
79500;SHT31;76397;53.172;18.140;2024-02-26T00:09:09;1.92;80.66
79500;SHT31;76397;53.172;18.140;2024-02-26T00:11:36;1.88;80.62
79500;SHT31;76397;53.172;18.140;2024-02-26T00:14:03;1.83;80.70
79500;SHT31;76397;53.172;18.140;2024-02-26T00:16:31;1.70;80.74
79500;SHT31;76397;53.172;18.140;2024-02-26T00:18:58;1.60;80.83
79500;SHT31;76397;53.172;18.140;2024-02-26T00:21:25;1.52;80.96
79500;SHT31;76397;53.172;18.140;2024-02-26T00:23:52;1.54;81.00
79500;SHT31;76397;53.172;18.140;2024-02-26T00:26:20;1.56;81.00
79500;SHT31;76397;53.172;18.140;2024-02-26T00:28:46;1.59;81.00
79500;SHT31;76397;53.172;18.140;2024-02-26T00:31:13;1.68;81.08
79500;SHT31;76397;53.172;18.140;2024-02-26T00:33:40;1.70;81.04
79500;SHT31;76397;53.172;18.140;2024-02-26T00:36:07;1.74;81.10
79500;SHT31;76397;53.172;18.140;2024-02-26T00:38:34;1.75;81.00
79500;SHT31;76397;53.172;18.140;2024-02-26T00:41:02;1.74;80.90
79500;SHT31;76397;53.172;18.140;2024-02-26T00:43:29;1.71;80.89
79500;SHT31;76397;53.172;18.140;2024-02-26T00:45:55;1.66;80.88
79500;SHT31;76397;53.172;18.140;2024-02-26T00:48:22;1.60;80.83
79500;SHT31;76397;53.172;18.140;2024-02-26T00:50:52;1.52;80.89
79500;SHT31;76397;53.172;18.140;2024-02-26T00:53:18;1.39;81.14
79500;SHT31;76397;53.172;18.140;2024-02-26T00:55:45;1.34;81.30
79500;SHT31;76397;53.172;18.140;2024-02-26T00:58:12;1.37;81.32
79500;SHT31;76397;53.172;18.140;2024-02-26T01:00:38;1.44;81.26
79500;SHT31;76397;53.172;18.140;2024-02-26T01:03:05;1.48;81.20
79500;SHT31;76397;53.172;18.140;2024-02-26T01:05:32;1.52;81.15
79500;SHT31;76397;53.172;18.140;2024-02-26T01:07:59;1.56;81.22
79500;SHT31;76397;53.172;18.140;2024-02-26T01:10:26;1.61;81.15
79500;SHT31;76397;53.172;18.140;2024-02-26T01:12:53;1.63;81.07
79500;SHT31;76397;53.172;18.140;2024-02-26T01:15:20;1.64;81.05
79500;SHT31;76397;53.172;18.140;2024-02-26T01:17:50;1.57;81.36
79500;SHT31;76397;53.172;18.140;2024-02-26T01:20:17;1.50;81.56
79500;SHT31;76397;53.172;18.140;2024-02-26T01:22:44;1.51;81.74
79500;SHT31;76397;53.172;18.140;2024-02-26T01:25:12;1.57;81.89
79500;SHT31;76397;53.172;18.140;2024-02-26T01:27:39;1.69;81.82
79500;SHT31;76397;53.172;18.140;2024-02-26T01:30:09;1.80;81.73
79500;SHT31;76397;53.172;18.140;2024-02-26T01:32:37;1.99;81.66
79500;SHT31;76397;53.172;18.140;2024-02-26T01:35:04;2.13;81.56
79500;SHT31;76397;53.172;18.140;2024-02-26T01:37:36;2.30;81.55
79500;SHT31;76397;53.172;18.140;2024-02-26T01:40:03;2.38;81.48
79500;SHT31;76397;53.172;18.140;2024-02-26T01:42:32;2.42;81.53
79500;SHT31;76397;53.172;18.140;2024-02-26T01:44:59;2.51;81.69
79500;SHT31;76397;53.172;18.140;2024-02-26T01:47:26;2.50;81.60
79500;SHT31;76397;53.172;18.140;2024-02-26T01:49:55;2.53;81.84
79500;SHT31;76397;53.172;18.140;2024-02-26T01:52:22;2.58;82.01
79500;SHT31;76397;53.172;18.140;2024-02-26T01:54:49;2.66;82.26
79500;SHT31;76397;53.172;18.140;2024-02-26T01:57:17;2.73;83.46
79500;SHT31;76397;53.172;18.140;2024-02-26T01:59:44;2.85;83.62
79500;SHT31;76397;53.172;18.140;2024-02-26T02:02:12;2.98;83.33
79500;SHT31;76397;53.172;18.140;2024-02-26T02:04:41;3.11;83.24
79500;SHT31;76397;53.172;18.140;2024-02-26T02:07:08;3.15;82.51
79500;SHT31;76397;53.172;18.140;2024-02-26T02:09:35;3.24;82.24
79500;SHT31;76397;53.172;18.140;2024-02-26T02:12:02;3.27;82.42
79500;SHT31;76397;53.172;18.140;2024-02-26T02:14:30;3.27;82.26
79500;SHT31;76397;53.172;18.140;2024-02-26T02:16:58;3.18;82.05
79500;SHT31;76397;53.172;18.140;2024-02-26T02:19:25;3.04;81.80
79500;SHT31;76397;53.172;18.140;2024-02-26T02:21:52;2.92;81.87
79500;SHT31;76397;53.172;18.140;2024-02-26T02:24:19;2.86;81.92
79500;SHT31;76397;53.172;18.140;2024-02-26T02:26:45;2.77;81.63
79500;SHT31;76397;53.172;18.140;2024-02-26T02:29:12;2.66;81.56
79500;SHT31;76397;53.172;18.140;2024-02-26T02:31:41;2.47;81.33
79500;SHT31;76397;53.172;18.140;2024-02-26T02:34:08;2.34;81.52
79500;SHT31;76397;53.172;18.140;2024-02-26T02:36:47;2.39;81.80
79500;SHT31;76397;53.172;18.140;2024-02-26T02:39:23;2.35;81.69
79500;SHT31;76397;53.172;18.140;2024-02-26T02:41:50;2.24;81.54
79500;SHT31;76397;53.172;18.140;2024-02-26T02:44:17;2.24;81.82
79500;SHT31;76397;53.172;18.140;2024-02-26T02:46:44;2.11;81.73
79500;SHT31;76397;53.172;18.140;2024-02-26T02:49:10;1.93;81.83
79500;SHT31;76397;53.172;18.140;2024-02-26T02:51:37;1.80;81.87
79500;SHT31;76397;53.172;18.140;2024-02-26T02:54:04;1.75;81.99
79500;SHT31;76397;53.172;18.140;2024-02-26T02:56:31;1.76;82.31
79500;SHT31;76397;53.172;18.140;2024-02-26T02:58:58;1.77;82.41
79500;SHT31;76397;53.172;18.140;2024-02-26T03:01:24;1.85;82.88
79500;SHT31;76397;53.172;18.140;2024-02-26T03:03:51;1.93;83.34
79500;SHT31;76397;53.172;18.140;2024-02-26T03:06:18;2.01;83.27
79500;SHT31;76397;53.172;18.140;2024-02-26T03:08:47;2.03;83.96
79500;SHT31;76397;53.172;18.140;2024-02-26T03:11:14;2.03;84.24
79500;SHT31;76397;53.172;18.140;2024-02-26T03:13:41;2.01;83.85
79500;SHT31;76397;53.172;18.140;2024-02-26T03:16:09;1.99;83.37
79500;SHT31;76397;53.172;18.140;2024-02-26T03:18:36;2.01;83.25
79500;SHT31;76397;53.172;18.140;2024-02-26T03:21:06;1.99;82.97
79500;SHT31;76397;53.172;18.140;2024-02-26T03:23:33;1.96;82.98
79500;SHT31;76397;53.172;18.140;2024-02-26T03:26:03;1.97;83.01
79500;SHT31;76397;53.172;18.140;2024-02-26T03:28:31;1.94;82.78
79500;SHT31;76397;53.172;18.140;2024-02-26T03:31:00;1.94;82.90
79500;SHT31;76397;53.172;18.140;2024-02-26T03:33:28;1.91;82.90
79500;SHT31;76397;53.172;18.140;2024-02-26T03:35:55;1.82;82.85
79500;SHT31;76397;53.172;18.140;2024-02-26T03:38:22;1.76;82.88
79500;SHT31;76397;53.172;18.140;2024-02-26T03:40:49;1.62;82.59
79500;SHT31;76397;53.172;18.140;2024-02-26T03:43:16;1.49;82.74
79500;SHT31;76397;53.172;18.140;2024-02-26T03:45:43;1.43;83.15
79500;SHT31;76397;53.172;18.140;2024-02-26T03:48:10;1.43;83.97
79500;SHT31;76397;53.172;18.140;2024-02-26T03:50:37;1.46;84.17
79500;SHT31;76397;53.172;18.140;2024-02-26T03:53:03;1.49;84.16
79500;SHT31;76397;53.172;18.140;2024-02-26T03:55:31;1.51;84.21
79500;SHT31;76397;53.172;18.140;2024-02-26T03:57:57;1.55;84.25
79500;SHT31;76397;53.172;18.140;2024-02-26T04:00:24;1.58;84.23
79500;SHT31;76397;53.172;18.140;2024-02-26T04:02:52;1.67;84.20
79500;SHT31;76397;53.172;18.140;2024-02-26T04:05:19;1.73;84.16
79500;SHT31;76397;53.172;18.140;2024-02-26T04:07:46;1.74;84.01
79500;SHT31;76397;53.172;18.140;2024-02-26T04:10:12;1.78;84.00
79500;SHT31;76397;53.172;18.140;2024-02-26T04:12:40;1.86;83.95
79500;SHT31;76397;53.172;18.140;2024-02-26T04:15:08;1.98;83.92
79500;SHT31;76397;53.172;18.140;2024-02-26T04:17:36;2.10;83.85
79500;SHT31;76397;53.172;18.140;2024-02-26T04:20:05;2.09;83.37
79500;SHT31;76397;53.172;18.140;2024-02-26T04:22:33;1.97;83.20
79500;SHT31;76397;53.172;18.140;2024-02-26T04:25:00;1.82;83.22
79500;SHT31;76397;53.172;18.140;2024-02-26T04:27:27;1.72;83.48
79500;SHT31;76397;53.172;18.140;2024-02-26T04:29:54;1.68;83.49
79500;SHT31;76397;53.172;18.140;2024-02-26T04:32:20;1.57;83.38
79500;SHT31;76397;53.172;18.140;2024-02-26T04:34:47;1.46;83.40
79500;SHT31;76397;53.172;18.140;2024-02-26T04:37:14;1.31;83.40
79500;SHT31;76397;53.172;18.140;2024-02-26T04:39:41;1.19;83.48
79500;SHT31;76397;53.172;18.140;2024-02-26T04:42:08;1.17;83.64
79500;SHT31;76397;53.172;18.140;2024-02-26T04:44:34;1.21;83.67
79500;SHT31;76397;53.172;18.140;2024-02-26T04:47:01;1.24;83.53
79500;SHT31;76397;53.172;18.140;2024-02-26T04:49:28;1.33;83.43
79500;SHT31;76397;53.172;18.140;2024-02-26T04:51:55;1.44;83.22
79500;SHT31;76397;53.172;18.140;2024-02-26T04:54:21;1.49;82.97
79500;SHT31;76397;53.172;18.140;2024-02-26T04:56:48;1.51;82.87
79500;SHT31;76397;53.172;18.140;2024-02-26T04:59:15;1.48;82.80
79500;SHT31;76397;53.172;18.140;2024-02-26T05:01:41;1.42;82.73
79500;SHT31;76397;53.172;18.140;2024-02-26T05:04:08;1.36;82.69
79500;SHT31;76397;53.172;18.140;2024-02-26T05:06:36;1.33;82.66
79500;SHT31;76397;53.172;18.140;2024-02-26T05:09:04;1.23;82.52
79500;SHT31;76397;53.172;18.140;2024-02-26T05:11:31;1.15;82.48
79500;SHT31;76397;53.172;18.140;2024-02-26T05:13:57;1.10;82.46
79500;SHT31;76397;53.172;18.140;2024-02-26T05:16:24;1.12;82.58
79500;SHT31;76397;53.172;18.140;2024-02-26T05:18:53;1.13;82.46
79500;SHT31;76397;53.172;18.140;2024-02-26T05:21:20;1.13;82.48
79500;SHT31;76397;53.172;18.140;2024-02-26T05:23:47;1.16;82.49
79500;SHT31;76397;53.172;18.140;2024-02-26T05:26:20;1.21;82.36
79500;SHT31;76397;53.172;18.140;2024-02-26T05:28:49;1.13;82.20
79500;SHT31;76397;53.172;18.140;2024-02-26T05:31:17;1.07;82.31
79500;SHT31;76397;53.172;18.140;2024-02-26T05:33:44;1.00;82.21
79500;SHT31;76397;53.172;18.140;2024-02-26T05:36:17;0.89;82.22
79500;SHT31;76397;53.172;18.140;2024-02-26T05:38:46;0.81;82.36
79500;SHT31;76397;53.172;18.140;2024-02-26T05:41:12;0.75;82.40
79500;SHT31;76397;53.172;18.140;2024-02-26T05:43:42;0.70;82.44
79500;SHT31;76397;53.172;18.140;2024-02-26T05:46:09;0.59;82.58
79500;SHT31;76397;53.172;18.140;2024-02-26T05:48:36;0.53;82.74
79500;SHT31;76397;53.172;18.140;2024-02-26T05:51:02;0.52;82.80
79500;SHT31;76397;53.172;18.140;2024-02-26T05:53:30;0.54;82.83
79500;SHT31;76397;53.172;18.140;2024-02-26T05:55:57;0.58;82.92
79500;SHT31;76397;53.172;18.140;2024-02-26T05:58:24;0.62;82.91
79500;SHT31;76397;53.172;18.140;2024-02-26T06:00:50;0.61;82.83
79500;SHT31;76397;53.172;18.140;2024-02-26T06:03:17;0.61;82.84
79500;SHT31;76397;53.172;18.140;2024-02-26T06:05:44;0.55;82.95
79500;SHT31;76397;53.172;18.140;2024-02-26T06:08:11;0.48;83.01
79500;SHT31;76397;53.172;18.140;2024-02-26T06:10:38;0.41;83.08
79500;SHT31;76397;53.172;18.140;2024-02-26T06:13:06;0.35;83.17
79500;SHT31;76397;53.172;18.140;2024-02-26T06:15:33;0.35;83.32
79500;SHT31;76397;53.172;18.140;2024-02-26T06:17:59;0.40;83.48
79500;SHT31;76397;53.172;18.140;2024-02-26T06:20:26;0.52;83.63
79500;SHT31;76397;53.172;18.140;2024-02-26T06:22:53;0.73;83.58
79500;SHT31;76397;53.172;18.140;2024-02-26T06:25:20;0.88;83.27
79500;SHT31;76397;53.172;18.140;2024-02-26T06:27:47;0.95;83.10
79500;SHT31;76397;53.172;18.140;2024-02-26T06:30:13;1.06;83.05
79500;SHT31;76397;53.172;18.140;2024-02-26T06:32:40;1.14;82.85
79500;SHT31;76397;53.172;18.140;2024-02-26T06:35:07;1.20;82.80
79500;SHT31;76397;53.172;18.140;2024-02-26T06:37:36;1.35;82.95
79500;SHT31;76397;53.172;18.140;2024-02-26T06:40:03;1.57;82.76
79500;SHT31;76397;53.172;18.140;2024-02-26T06:42:32;1.75;82.50
79500;SHT31;76397;53.172;18.140;2024-02-26T06:44:59;1.80;82.19
79500;SHT31;76397;53.172;18.140;2024-02-26T06:47:26;1.83;82.12
79500;SHT31;76397;53.172;18.140;2024-02-26T06:49:53;1.88;82.11
79500;SHT31;76397;53.172;18.140;2024-02-26T06:52:24;1.93;82.11
79500;SHT31;76397;53.172;18.140;2024-02-26T06:54:52;2.06;82.21
79500;SHT31;76397;53.172;18.140;2024-02-26T06:57:19;2.22;82.15
79500;SHT31;76397;53.172;18.140;2024-02-26T06:59:47;2.34;81.86
79500;SHT31;76397;53.172;18.140;2024-02-26T07:02:14;2.43;81.68
79500;SHT31;76397;53.172;18.140;2024-02-26T07:04:41;2.56;81.60
79500;SHT31;76397;53.172;18.140;2024-02-26T07:07:08;2.61;81.50
79500;SHT31;76397;53.172;18.140;2024-02-26T07:09:35;2.74;81.46
79500;SHT31;76397;53.172;18.140;2024-02-26T07:12:02;2.85;81.45
79500;SHT31;76397;53.172;18.140;2024-02-26T07:14:30;2.93;81.51
79500;SHT31;76397;53.172;18.140;2024-02-26T07:16:56;3.00;81.50
79500;SHT31;76397;53.172;18.140;2024-02-26T07:19:24;3.08;81.44
79500;SHT31;76397;53.172;18.140;2024-02-26T07:21:51;3.23;81.42
79500;SHT31;76397;53.172;18.140;2024-02-26T07:24:18;3.48;81.27
79500;SHT31;76397;53.172;18.140;2024-02-26T07:26:45;3.72;80.94
79500;SHT31;76397;53.172;18.140;2024-02-26T07:29:12;3.81;80.77
79500;SHT31;76397;53.172;18.140;2024-02-26T07:31:38;3.89;81.21
79500;SHT31;76397;53.172;18.140;2024-02-26T07:34:05;4.02;81.32
79500;SHT31;76397;53.172;18.140;2024-02-26T07:36:32;4.19;81.40
79500;SHT31;76397;53.172;18.140;2024-02-26T07:38:59;4.36;81.27
79500;SHT31;76397;53.172;18.140;2024-02-26T07:41:27;4.50;81.17
79500;SHT31;76397;53.172;18.140;2024-02-26T07:43:54;4.55;81.03
79500;SHT31;76397;53.172;18.140;2024-02-26T07:46:20;4.65;80.92
79500;SHT31;76397;53.172;18.140;2024-02-26T07:48:48;4.86;80.93
79500;SHT31;76397;53.172;18.140;2024-02-26T07:51:14;4.99;80.71
79500;SHT31;76397;53.172;18.140;2024-02-26T07:53:41;5.07;80.60
79500;SHT31;76397;53.172;18.140;2024-02-26T07:56:08;5.22;80.59
79500;SHT31;76397;53.172;18.140;2024-02-26T07:58:35;5.53;80.56
79500;SHT31;76397;53.172;18.140;2024-02-26T08:01:02;5.81;80.33
79500;SHT31;76397;53.172;18.140;2024-02-26T08:03:29;6.15;79.91
79500;SHT31;76397;53.172;18.140;2024-02-26T08:05:56;6.61;79.51
79500;SHT31;76397;53.172;18.140;2024-02-26T08:08:23;7.06;78.99
79500;SHT31;76397;53.172;18.140;2024-02-26T08:10:49;7.64;78.21
79500;SHT31;76397;53.172;18.140;2024-02-26T08:13:16;7.89;77.18
79500;SHT31;76397;53.172;18.140;2024-02-26T08:15:43;7.76;76.33
79500;SHT31;76397;53.172;18.140;2024-02-26T08:18:09;8.02;76.92
79500;SHT31;76397;53.172;18.140;2024-02-26T08:20:36;8.40;76.53
79500;SHT31;76397;53.172;18.140;2024-02-26T08:23:03;8.86;75.02
79500;SHT31;76397;53.172;18.140;2024-02-26T08:25:30;9.08;74.99
79500;SHT31;76397;53.172;18.140;2024-02-26T08:27:57;9.15;75.02
79500;SHT31;76397;53.172;18.140;2024-02-26T08:30:25;9.38;74.87
79500;SHT31;76397;53.172;18.140;2024-02-26T08:32:52;9.58;74.40
79500;SHT31;76397;53.172;18.140;2024-02-26T08:35:19;10.03;73.86
79500;SHT31;76397;53.172;18.140;2024-02-26T08:37:47;10.74;72.86
79500;SHT31;76397;53.172;18.140;2024-02-26T08:40:14;11.47;72.44
79500;SHT31;76397;53.172;18.140;2024-02-26T08:42:41;12.16;71.64
79500;SHT31;76397;53.172;18.140;2024-02-26T08:45:08;12.84;69.97
79500;SHT31;76397;53.172;18.140;2024-02-26T08:47:36;13.14;69.12
79500;SHT31;76397;53.172;18.140;2024-02-26T08:50:03;13.49;69.70
79500;SHT31;76397;53.172;18.140;2024-02-26T08:52:31;13.85;69.52
79500;SHT31;76397;53.172;18.140;2024-02-26T08:54:59;13.85;68.52
79500;SHT31;76397;53.172;18.140;2024-02-26T08:57:26;14.02;68.55
79500;SHT31;76397;53.172;18.140;2024-02-26T08:59:58;14.17;67.74
79500;SHT31;76397;53.172;18.140;2024-02-26T09:02:25;14.33;67.21
79500;SHT31;76397;53.172;18.140;2024-02-26T09:04:51;14.38;67.44
79500;SHT31;76397;53.172;18.140;2024-02-26T09:07:21;14.83;67.13
79500;SHT31;76397;53.172;18.140;2024-02-26T09:09:48;15.39;66.56
79500;SHT31;76397;53.172;18.140;2024-02-26T09:12:15;16.03;65.72
79500;SHT31;76397;53.172;18.140;2024-02-26T09:14:42;16.60;64.69
79500;SHT31;76397;53.172;18.140;2024-02-26T09:17:08;16.84;63.52
79500;SHT31;76397;53.172;18.140;2024-02-26T09:19:35;17.00;62.33
79500;SHT31;76397;53.172;18.140;2024-02-26T09:22:02;17.24;62.70
79500;SHT31;76397;53.172;18.140;2024-02-26T09:24:29;17.58;62.33
79500;SHT31;76397;53.172;18.140;2024-02-26T09:26:56;17.61;60.91
79500;SHT31;76397;53.172;18.140;2024-02-26T09:29:23;17.27;60.82
79500;SHT31;76397;53.172;18.140;2024-02-26T09:31:49;17.01;60.83
79500;SHT31;76397;53.172;18.140;2024-02-26T09:34:16;17.04;61.16
79500;SHT31;76397;53.172;18.140;2024-02-26T09:36:43;17.22;60.54
79500;SHT31;76397;53.172;18.140;2024-02-26T09:39:10;17.07;59.60
79500;SHT31;76397;53.172;18.140;2024-02-26T09:41:38;17.10;59.99
79500;SHT31;76397;53.172;18.140;2024-02-26T09:44:05;17.37;58.97
79500;SHT31;76397;53.172;18.140;2024-02-26T09:46:32;17.72;58.89
79500;SHT31;76397;53.172;18.140;2024-02-26T09:49:00;17.89;57.51
79500;SHT31;76397;53.172;18.140;2024-02-26T09:51:27;17.68;57.44
79500;SHT31;76397;53.172;18.140;2024-02-26T09:53:55;17.48;57.85
79500;SHT31;76397;53.172;18.140;2024-02-26T09:56:27;17.39;57.75
79500;SHT31;76397;53.172;18.140;2024-02-26T09:58:56;17.44;57.49
79500;SHT31;76397;53.172;18.140;2024-02-26T10:01:24;17.45;56.67
79500;SHT31;76397;53.172;18.140;2024-02-26T10:03:52;17.01;56.61
79500;SHT31;76397;53.172;18.140;2024-02-26T10:06:24;16.67;56.25
79500;SHT31;76397;53.172;18.140;2024-02-26T10:08:54;16.80;56.68
79500;SHT31;76397;53.172;18.140;2024-02-26T10:11:24;16.97;56.69
79500;SHT31;76397;53.172;18.140;2024-02-26T10:13:52;16.97;56.31
79500;SHT31;76397;53.172;18.140;2024-02-26T10:16:19;16.62;56.28
79500;SHT31;76397;53.172;18.140;2024-02-26T10:18:50;16.42;56.19
79500;SHT31;76397;53.172;18.140;2024-02-26T10:21:20;16.23;56.55
79500;SHT31;76397;53.172;18.140;2024-02-26T10:23:48;16.10;56.47
79500;SHT31;76397;53.172;18.140;2024-02-26T10:26:20;15.90;56.20
79500;SHT31;76397;53.172;18.140;2024-02-26T10:28:48;15.81;56.59
79500;SHT31;76397;53.172;18.140;2024-02-26T10:31:16;15.85;56.51
79500;SHT31;76397;53.172;18.140;2024-02-26T10:33:42;15.89;56.70
79500;SHT31;76397;53.172;18.140;2024-02-26T10:36:10;15.76;56.51
79500;SHT31;76397;53.172;18.140;2024-02-26T10:38:38;15.51;56.92
79500;SHT31;76397;53.172;18.140;2024-02-26T10:41:09;15.32;57.04
79500;SHT31;76397;53.172;18.140;2024-02-26T10:43:42;14.94;56.97
79500;SHT31;76397;53.172;18.140;2024-02-26T10:46:10;14.52;57.75
79500;SHT31;76397;53.172;18.140;2024-02-26T10:48:37;14.19;58.20
79500;SHT31;76397;53.172;18.140;2024-02-26T10:51:03;13.82;58.93
79500;SHT31;76397;53.172;18.140;2024-02-26T10:53:31;13.32;60.02
79500;SHT31;76397;53.172;18.140;2024-02-26T10:56:03;12.96;60.95
79500;SHT31;76397;53.172;18.140;2024-02-26T10:58:32;12.76;61.33
79500;SHT31;76397;53.172;18.140;2024-02-26T11:00:59;12.58;61.71
79500;SHT31;76397;53.172;18.140;2024-02-26T11:03:26;12.46;62.26
79500;SHT31;76397;53.172;18.140;2024-02-26T11:05:58;12.52;62.35
79500;SHT31;76397;53.172;18.140;2024-02-26T11:08:28;12.57;62.30
79500;SHT31;76397;53.172;18.140;2024-02-26T11:10:56;12.58;62.19
79500;SHT31;76397;53.172;18.140;2024-02-26T11:13:26;12.49;62.46
79500;SHT31;76397;53.172;18.140;2024-02-26T11:15:57;12.45;62.68
79500;SHT31;76397;53.172;18.140;2024-02-26T11:18:26;12.38;62.71
79500;SHT31;76397;53.172;18.140;2024-02-26T11:20:54;12.39;62.76
79500;SHT31;76397;53.172;18.140;2024-02-26T11:23:23;12.38;63.14
79500;SHT31;76397;53.172;18.140;2024-02-26T11:25:50;12.43;63.19
79500;SHT31;76397;53.172;18.140;2024-02-26T11:28:22;12.36;63.03
79500;SHT31;76397;53.172;18.140;2024-02-26T11:30:50;12.21;63.08
79500;SHT31;76397;53.172;18.140;2024-02-26T11:33:19;12.18;63.64
79500;SHT31;76397;53.172;18.140;2024-02-26T11:35:47;12.30;63.87
79500;SHT31;76397;53.172;18.140;2024-02-26T11:38:17;12.43;63.55
79500;SHT31;76397;53.172;18.140;2024-02-26T11:40:48;12.41;63.32
79500;SHT31;76397;53.172;18.140;2024-02-26T11:43:16;12.44;63.77
79500;SHT31;76397;53.172;18.140;2024-02-26T11:48:23;12.31;64.12
79500;SHT31;76397;53.172;18.140;2024-02-26T11:50:53;12.23;64.70
79500;SHT31;76397;53.172;18.140;2024-02-26T11:53:22;12.25;64.98
79500;SHT31;76397;53.172;18.140;2024-02-26T11:58:43;12.38;64.69
79500;SHT31;76397;53.172;18.140;2024-02-26T12:04:18;12.56;64.06
79500;SHT31;76397;53.172;18.140;2024-02-26T12:07:00;12.62;64.05
79500;SHT31;76397;53.172;18.140;2024-02-26T12:09:33;12.59;64.18
79500;SHT31;76397;53.172;18.140;2024-02-26T12:12:09;12.55;64.47
79500;SHT31;76397;53.172;18.140;2024-02-26T12:14:40;12.61;64.79
79500;SHT31;76397;53.172;18.140;2024-02-26T12:17:22;12.67;64.73
79500;SHT31;76397;53.172;18.140;2024-02-26T12:19:51;12.66;65.20
79500;SHT31;76397;53.172;18.140;2024-02-26T12:22:20;12.72;65.33
79500;SHT31;76397;53.172;18.140;2024-02-26T12:24:47;12.74;65.01
79500;SHT31;76397;53.172;18.140;2024-02-26T12:27:13;12.82;64.71
79500;SHT31;76397;53.172;18.140;2024-02-26T12:29:41;12.98;64.77
79500;SHT31;76397;53.172;18.140;2024-02-26T12:32:08;13.06;65.07
79500;SHT31;76397;53.172;18.140;2024-02-26T12:34:37;13.08;65.15
79500;SHT31;76397;53.172;18.140;2024-02-26T12:37:04;13.08;65.38
79500;SHT31;76397;53.172;18.140;2024-02-26T12:39:31;13.03;65.69
79500;SHT31;76397;53.172;18.140;2024-02-26T12:41:58;12.93;65.90
79500;SHT31;76397;53.172;18.140;2024-02-26T12:44:25;12.87;65.98
79500;SHT31;76397;53.172;18.140;2024-02-26T12:47:03;12.71;66.05
79500;SHT31;76397;53.172;18.140;2024-02-26T12:49:31;12.57;66.57
79500;SHT31;76397;53.172;18.140;2024-02-26T12:51:58;12.48;67.33
79500;SHT31;76397;53.172;18.140;2024-02-26T12:54:29;12.47;67.45
79500;SHT31;76397;53.172;18.140;2024-02-26T12:56:59;12.54;67.50
79500;SHT31;76397;53.172;18.140;2024-02-26T12:59:29;12.58;67.47
79500;SHT31;76397;53.172;18.140;2024-02-26T13:01:57;12.56;67.49
79500;SHT31;76397;53.172;18.140;2024-02-26T13:04:25;12.58;68.14
79500;SHT31;76397;53.172;18.140;2024-02-26T13:06:55;12.65;68.12
79500;SHT31;76397;53.172;18.140;2024-02-26T13:09:28;12.75;67.75
79500;SHT31;76397;53.172;18.140;2024-02-26T13:12:00;12.92;67.76
79500;SHT31;76397;53.172;18.140;2024-02-26T13:14:29;13.04;67.45
79500;SHT31;76397;53.172;18.140;2024-02-26T13:16:58;13.08;67.33
79500;SHT31;76397;53.172;18.140;2024-02-26T13:19:24;13.13;67.45
79500;SHT31;76397;53.172;18.140;2024-02-26T13:21:52;13.17;67.45
79500;SHT31;76397;53.172;18.140;2024-02-26T13:24:20;13.27;67.47
79500;SHT31;76397;53.172;18.140;2024-02-26T13:26:54;13.35;67.02
79500;SHT31;76397;53.172;18.140;2024-02-26T13:29:22;13.36;66.95
79500;SHT31;76397;53.172;18.140;2024-02-26T13:31:58;13.27;67.11
79500;SHT31;76397;53.172;18.140;2024-02-26T13:34:28;13.18;67.24
79500;SHT31;76397;53.172;18.140;2024-02-26T13:36:57;13.18;67.16
79500;SHT31;76397;53.172;18.140;2024-02-26T13:39:24;13.16;67.24
79500;SHT31;76397;53.172;18.140;2024-02-26T13:41:53;13.15;67.13
79500;SHT31;76397;53.172;18.140;2024-02-26T13:44:23;13.17;66.99
79500;SHT31;76397;53.172;18.140;2024-02-26T13:46:50;13.07;66.96
79500;SHT31;76397;53.172;18.140;2024-02-26T13:49:17;12.91;67.29
79500;SHT31;76397;53.172;18.140;2024-02-26T13:51:44;12.86;67.47
79500;SHT31;76397;53.172;18.140;2024-02-26T13:54:11;12.79;67.46
79500;SHT31;76397;53.172;18.140;2024-02-26T13:56:39;12.77;67.66
79500;SHT31;76397;53.172;18.140;2024-02-26T13:59:06;12.77;67.82
79500;SHT31;76397;53.172;18.140;2024-02-26T14:01:32;12.76;67.70
79500;SHT31;76397;53.172;18.140;2024-02-26T14:04:00;12.73;67.68
79500;SHT31;76397;53.172;18.140;2024-02-26T14:06:28;12.64;67.66
79500;SHT31;76397;53.172;18.140;2024-02-26T14:08:56;12.55;67.80
79500;SHT31;76397;53.172;18.140;2024-02-26T14:11:23;12.49;67.86
79500;SHT31;76397;53.172;18.140;2024-02-26T14:13:51;12.44;68.03
79500;SHT31;76397;53.172;18.140;2024-02-26T14:16:18;12.38;68.17
79500;SHT31;76397;53.172;18.140;2024-02-26T14:18:46;12.31;68.18
79500;SHT31;76397;53.172;18.140;2024-02-26T14:21:13;12.23;68.34
79500;SHT31;76397;53.172;18.140;2024-02-26T14:23:40;12.16;68.63
79500;SHT31;76397;53.172;18.140;2024-02-26T14:26:08;12.15;68.71
79500;SHT31;76397;53.172;18.140;2024-02-26T14:28:35;12.14;68.73
79500;SHT31;76397;53.172;18.140;2024-02-26T14:31:03;12.11;68.66
79500;SHT31;76397;53.172;18.140;2024-02-26T14:33:32;12.14;68.62
79500;SHT31;76397;53.172;18.140;2024-02-26T14:35:59;12.11;68.67
79500;SHT31;76397;53.172;18.140;2024-02-26T14:38:26;12.07;68.75
79500;SHT31;76397;53.172;18.140;2024-02-26T14:40:53;11.98;68.89
79500;SHT31;76397;53.172;18.140;2024-02-26T14:43:20;11.90;69.30
79500;SHT31;76397;53.172;18.140;2024-02-26T14:45:46;11.81;69.40
79500;SHT31;76397;53.172;18.140;2024-02-26T14:48:13;11.74;69.58
79500;SHT31;76397;53.172;18.140;2024-02-26T14:50:40;11.65;69.98
79500;SHT31;76397;53.172;18.140;2024-02-26T14:53:07;11.60;70.10
79500;SHT31;76397;53.172;18.140;2024-02-26T14:55:33;11.58;70.22
79500;SHT31;76397;53.172;18.140;2024-02-26T14:58:00;11.59;70.35
79500;SHT31;76397;53.172;18.140;2024-02-26T15:00:27;11.54;70.53
79500;SHT31;76397;53.172;18.140;2024-02-26T15:02:54;11.49;70.72
79500;SHT31;76397;53.172;18.140;2024-02-26T15:05:21;11.43;70.84
79500;SHT31;76397;53.172;18.140;2024-02-26T15:07:47;11.37;70.96
79500;SHT31;76397;53.172;18.140;2024-02-26T15:10:15;11.28;71.16
79500;SHT31;76397;53.172;18.140;2024-02-26T15:12:43;11.21;71.25
79500;SHT31;76397;53.172;18.140;2024-02-26T15:15:10;11.15;71.32
79500;SHT31;76397;53.172;18.140;2024-02-26T15:17:36;11.11;71.43
79500;SHT31;76397;53.172;18.140;2024-02-26T15:20:03;11.12;71.47
79500;SHT31;76397;53.172;18.140;2024-02-26T15:22:33;11.09;71.59
79500;SHT31;76397;53.172;18.140;2024-02-26T15:25:00;11.02;71.77
79500;SHT31;76397;53.172;18.140;2024-02-26T15:27:27;10.94;72.10
79500;SHT31;76397;53.172;18.140;2024-02-26T15:29:54;10.88;72.19
79500;SHT31;76397;53.172;18.140;2024-02-26T15:32:24;10.77;72.47
79500;SHT31;76397;53.172;18.140;2024-02-26T15:34:51;10.68;72.76
79500;SHT31;76397;53.172;18.140;2024-02-26T15:37:18;10.59;73.06